sensor_id;sensor_type;location;lat;lon;timestamp;pressure;altitude;pressure_sealevel;temperature;humidity
79415;BME280;68864;44.972;19.612;2024-01-30T00:00:38;103129.63;;;1.19;80.96
79415;BME280;68864;44.972;19.612;2024-01-30T00:03:05;103124.94;;;1.20;80.60
79415;BME280;68864;44.972;19.612;2024-01-30T00:05:32;103135.25;;;1.25;81.00
79415;BME280;68864;44.972;19.612;2024-01-30T00:08:00;103129.13;;;1.23;81.26
79415;BME280;68864;44.972;19.612;2024-01-30T00:10:27;103129.63;;;1.19;81.16
79415;BME280;68864;44.972;19.612;2024-01-30T00:12:54;103132.38;;;1.19;81.46
79415;BME280;68864;44.972;19.612;2024-01-30T00:15:21;103127.00;;;1.13;81.52
79415;BME280;68864;44.972;19.612;2024-01-30T00:17:48;103129.97;;;1.11;82.02
79415;BME280;68864;44.972;19.612;2024-01-30T00:20:17;103131.06;;;1.10;82.37
79415;BME280;68864;44.972;19.612;2024-01-30T00:22:44;103127.34;;;1.05;82.33
79415;BME280;68864;44.972;19.612;2024-01-30T00:25:13;103133.06;;;1.03;82.94
79415;BME280;68864;44.972;19.612;2024-01-30T00:27:39;103138.78;;;1.13;82.51
79415;BME280;68864;44.972;19.612;2024-01-30T00:30:07;103129.13;;;0.99;82.51
79415;BME280;68864;44.972;19.612;2024-01-30T00:32:34;103137.59;;;0.98;82.67
79415;BME280;68864;44.972;19.612;2024-01-30T00:35:01;103139.84;;;1.01;82.66
79415;BME280;68864;44.972;19.612;2024-01-30T00:37:28;103148.47;;;1.04;82.59
79415;BME280;68864;44.972;19.612;2024-01-30T00:39:56;103148.34;;;0.99;82.59
79415;BME280;68864;44.972;19.612;2024-01-30T00:42:24;103144.78;;;0.99;83.30
79415;BME280;68864;44.972;19.612;2024-01-30T00:44:51;103145.13;;;1.02;82.99
79415;BME280;68864;44.972;19.612;2024-01-30T00:47:18;103144.78;;;0.99;83.19
79415;BME280;68864;44.972;19.612;2024-01-30T00:49:45;103149.66;;;0.97;84.11
79415;BME280;68864;44.972;19.612;2024-01-30T00:52:12;103149.66;;;0.97;83.55
79415;BME280;68864;44.972;19.612;2024-01-30T00:54:39;103138.78;;;0.90;83.42
79415;BME280;68864;44.972;19.612;2024-01-30T00:57:06;103142.97;;;1.04;83.16
79415;BME280;68864;44.972;19.612;2024-01-30T00:59:34;103145.25;;;1.07;82.94
79415;BME280;68864;44.972;19.612;2024-01-30T01:02:01;103140.84;;;1.06;83.21
79415;BME280;68864;44.972;19.612;2024-01-30T01:04:28;103134.25;;;0.96;83.52
79415;BME280;68864;44.972;19.612;2024-01-30T01:06:55;103135.81;;;0.92;83.50
79415;BME280;68864;44.972;19.612;2024-01-30T01:09:22;103140.34;;;0.98;83.30
79415;BME280;68864;44.972;19.612;2024-01-30T01:11:48;103135.31;;;0.95;83.25
79415;BME280;68864;44.972;19.612;2024-01-30T01:14:16;103126.34;;;0.88;84.11
79415;BME280;68864;44.972;19.612;2024-01-30T01:16:44;103134.47;;;0.94;83.60
79415;BME280;68864;44.972;19.612;2024-01-30T01:19:11;103131.84;;;0.88;84.10
79415;BME280;68864;44.972;19.612;2024-01-30T01:21:38;103128.25;;;0.87;84.28
79415;BME280;68864;44.972;19.612;2024-01-30T01:24:05;103137.47;;;0.93;84.36
79415;BME280;68864;44.972;19.612;2024-01-30T01:26:32;103129.47;;;0.79;85.03
79415;BME280;68864;44.972;19.612;2024-01-30T01:28:59;103140.69;;;0.90;84.70
79415;BME280;68864;44.972;19.612;2024-01-30T01:31:26;103135.19;;;0.90;84.34
79415;BME280;68864;44.972;19.612;2024-01-30T01:33:56;103138.78;;;0.90;84.12
79415;BME280;68864;44.972;19.612;2024-01-30T01:36:23;103137.00;;;0.96;84.20
79415;BME280;68864;44.972;19.612;2024-01-30T01:38:50;103134.25;;;0.96;83.99
79415;BME280;68864;44.972;19.612;2024-01-30T01:41:17;103130.31;;;0.92;83.63
79415;BME280;68864;44.972;19.612;2024-01-30T01:43:44;103125.91;;;0.91;83.95
79415;BME280;68864;44.972;19.612;2024-01-30T01:46:11;103108.59;;;0.90;83.89
79415;BME280;68864;44.972;19.612;2024-01-30T01:48:38;103115.97;;;0.90;83.62
79415;BME280;68864;44.972;19.612;2024-01-30T01:51:06;103103.19;;;0.84;83.81
79415;BME280;68864;44.972;19.612;2024-01-30T01:53:34;103103.19;;;0.84;84.25
79415;BME280;68864;44.972;19.612;2024-01-30T01:56:01;103115.97;;;0.90;83.68
79415;BME280;68864;44.972;19.612;2024-01-30T01:58:29;103125.50;;;0.87;84.02
79415;BME280;68864;44.972;19.612;2024-01-30T02:00:56;103122.19;;;0.85;83.70
79415;BME280;68864;44.972;19.612;2024-01-30T02:03:23;103123.97;;;0.79;84.15
79415;BME280;68864;44.972;19.612;2024-01-30T02:05:50;103117.25;;;0.75;83.96
79415;BME280;68864;44.972;19.612;2024-01-30T02:08:19;103124.31;;;0.71;84.64
79415;BME280;68864;44.972;19.612;2024-01-30T02:10:45;103123.91;;;0.56;84.58
79415;BME280;68864;44.972;19.612;2024-01-30T02:13:13;103120.31;;;0.56;85.20
79415;BME280;68864;44.972;19.612;2024-01-30T02:15:40;103125.44;;;0.52;85.25
79415;BME280;68864;44.972;19.612;2024-01-30T02:18:06;103109.22;;;0.51;84.84
79415;BME280;68864;44.972;19.612;2024-01-30T02:20:35;103130.00;;;0.58;84.57
79415;BME280;68864;44.972;19.612;2024-01-30T02:23:04;103124.63;;;0.63;84.30
79415;BME280;68864;44.972;19.612;2024-01-30T02:25:32;103129.59;;;0.55;85.20
79415;BME280;68864;44.972;19.612;2024-01-30T02:27:59;103123.91;;;0.56;84.67
79415;BME280;68864;44.972;19.612;2024-01-30T02:30:26;103122.72;;;0.52;84.60
79415;BME280;68864;44.972;19.612;2024-01-30T02:32:53;103125.06;;;0.49;84.93
79415;BME280;68864;44.972;19.612;2024-01-30T02:35:20;103139.09;;;0.40;85.62
79415;BME280;68864;44.972;19.612;2024-01-30T02:37:47;103133.88;;;0.39;85.84
79415;BME280;68864;44.972;19.612;2024-01-30T02:40:18;103138.63;;;0.32;85.86
79415;BME280;68864;44.972;19.612;2024-01-30T02:42:45;103145.16;;;0.31;86.08
79415;BME280;68864;44.972;19.612;2024-01-30T02:45:13;103136.22;;;0.35;85.84
79415;BME280;68864;44.972;19.612;2024-01-30T02:47:40;103133.34;;;0.30;86.71
79415;BME280;68864;44.972;19.612;2024-01-30T02:50:07;103135.25;;;0.30;86.73
79415;BME280;68864;44.972;19.612;2024-01-30T02:52:34;103138.94;;;0.24;87.46
79415;BME280;68864;44.972;19.612;2024-01-30T02:55:01;103142.50;;;0.24;87.01
79415;BME280;68864;44.972;19.612;2024-01-30T02:57:31;103142.72;;;0.23;87.30
79415;BME280;68864;44.972;19.612;2024-01-30T02:59:58;103140.50;;;0.31;86.27
79415;BME280;68864;44.972;19.612;2024-01-30T03:02:25;103135.69;;;0.27;87.01
79415;BME280;68864;44.972;19.612;2024-01-30T03:04:52;103140.91;;;0.17;86.74
79415;BME280;68864;44.972;19.612;2024-01-30T03:07:19;103146.63;;;0.15;86.89
79415;BME280;68864;44.972;19.612;2024-01-30T03:09:45;103140.06;;;0.16;87.21
79415;BME280;68864;44.972;19.612;2024-01-30T03:12:13;103140.66;;;0.07;86.34
79415;BME280;68864;44.972;19.612;2024-01-30T03:14:42;103144.94;;;0.14;86.67
79415;BME280;68864;44.972;19.612;2024-01-30T03:17:08;103137.81;;;0.13;86.53
79415;BME280;68864;44.972;19.612;2024-01-30T03:19:35;103138.88;;;0.12;86.01
79415;BME280;68864;44.972;19.612;2024-01-30T03:22:02;103128.31;;;-0.03;86.35
79415;BME280;68864;44.972;19.612;2024-01-30T03:24:29;103126.56;;;-0.15;87.48
79415;BME280;68864;44.972;19.612;2024-01-30T03:26:56;103130.16;;;-0.15;87.77
79415;BME280;68864;44.972;19.612;2024-01-30T03:29:23;103135.56;;;-0.08;86.92
79415;BME280;68864;44.972;19.612;2024-01-30T03:31:51;103143.06;;;-0.04;87.39
79415;BME280;68864;44.972;19.612;2024-01-30T03:34:18;103121.84;;;-0.08;87.18
79415;BME280;68864;44.972;19.612;2024-01-30T03:36:45;103139.50;;;-0.04;87.46
79415;BME280;68864;44.972;19.612;2024-01-30T03:39:12;103128.00;;;-0.13;87.76
79415;BME280;68864;44.972;19.612;2024-01-30T03:41:42;103136.06;;;-0.18;88.86
79415;BME280;68864;44.972;19.612;2024-01-30T03:44:09;103137.13;;;-0.19;88.49
79415;BME280;68864;44.972;19.612;2024-01-30T03:46:37;103134.38;;;-0.19;88.19
79415;BME280;68864;44.972;19.612;2024-01-30T03:49:05;103139.94;;;-0.25;89.30
79415;BME280;68864;44.972;19.612;2024-01-30T03:51:32;103136.63;;;-0.27;89.45
79415;BME280;68864;44.972;19.612;2024-01-30T03:53:59;103136.22;;;-0.31;89.10
79415;BME280;68864;44.972;19.612;2024-01-30T03:56:26;103128.09;;;-0.37;90.82
79415;BME280;68864;44.972;19.612;2024-01-30T03:58:52;103140.22;;;-0.27;90.00
79415;BME280;68864;44.972;19.612;2024-01-30T04:01:19;103139.50;;;-0.22;89.70
79415;BME280;68864;44.972;19.612;2024-01-30T04:03:46;103127.94;;;-0.24;89.84
79415;BME280;68864;44.972;19.612;2024-01-30T04:06:14;103133.56;;;-0.19;89.61
79415;BME280;68864;44.972;19.612;2024-01-30T04:08:41;103126.88;;;-0.23;90.13
79415;BME280;68864;44.972;19.612;2024-01-30T04:11:08;103139.03;;;-0.19;90.22
79415;BME280;68864;44.972;19.612;2024-01-30T04:13:35;103135.84;;;-0.16;90.11
79415;BME280;68864;44.972;19.612;2024-01-30T04:16:02;103134.78;;;-0.15;89.59
79415;BME280;68864;44.972;19.612;2024-01-30T04:18:30;103137.69;;;-0.10;89.81
79415;BME280;68864;44.972;19.612;2024-01-30T04:20:57;103134.78;;;-0.15;90.84
79415;BME280;68864;44.972;19.612;2024-01-30T04:23:26;103134.72;;;-0.09;90.55
79415;BME280;68864;44.972;19.612;2024-01-30T04:25:52;103134.41;;;-0.01;89.70
79415;BME280;68864;44.972;19.612;2024-01-30T04:28:19;103127.81;;;0.00;90.04
79415;BME280;68864;44.972;19.612;2024-01-30T04:30:46;103135.69;;;-0.03;90.28
79415;BME280;68864;44.972;19.612;2024-01-30T04:33:13;103123.75;;;-0.09;90.46
79415;BME280;68864;44.972;19.612;2024-01-30T04:35:40;103124.19;;;-0.12;92.10
79415;BME280;68864;44.972;19.612;2024-01-30T04:38:07;103140.34;;;-0.04;92.14
79415;BME280;68864;44.972;19.612;2024-01-30T04:40:35;103132.25;;;0.02;91.96
79415;BME280;68864;44.972;19.612;2024-01-30T04:43:02;103144.13;;;-0.05;91.78
79415;BME280;68864;44.972;19.612;2024-01-30T04:45:29;103124.31;;;-0.07;91.95
79415;BME280;68864;44.972;19.612;2024-01-30T04:47:55;103139.63;;;0.01;92.30
79415;BME280;68864;44.972;19.612;2024-01-30T04:50:23;103145.19;;;-0.06;91.47
79415;BME280;68864;44.972;19.612;2024-01-30T04:52:50;103148.69;;;0.02;90.92
79415;BME280;68864;44.972;19.612;2024-01-30T04:55:16;103143.69;;;-0.02;91.02
79415;BME280;68864;44.972;19.612;2024-01-30T04:57:45;103151.75;;;-0.07;91.45
79415;BME280;68864;44.972;19.612;2024-01-30T05:00:12;103151.75;;;-0.07;91.43
79415;BME280;68864;44.972;19.612;2024-01-30T05:02:39;103145.19;;;-0.06;91.90
79415;BME280;68864;44.972;19.612;2024-01-30T05:05:06;103128.00;;;-0.13;91.68
79415;BME280;68864;44.972;19.612;2024-01-30T05:07:33;103141.88;;;-0.08;91.48
79415;BME280;68864;44.972;19.612;2024-01-30T05:10:00;103146.88;;;-0.05;91.38
79415;BME280;68864;44.972;19.612;2024-01-30T05:12:27;103142.22;;;-0.04;91.47
79415;BME280;68864;44.972;19.612;2024-01-30T05:14:56;103150.38;;;0.03;91.14
79415;BME280;68864;44.972;19.612;2024-01-30T05:17:22;103145.94;;;0.02;91.19
79415;BME280;68864;44.972;19.612;2024-01-30T05:19:49;103153.28;;;-0.11;91.01
79415;BME280;68864;44.972;19.612;2024-01-30T05:22:16;103149.78;;;-0.18;90.89
79415;BME280;68864;44.972;19.612;2024-01-30T05:24:44;103150.00;;;-0.19;91.28
79415;BME280;68864;44.972;19.612;2024-01-30T05:27:11;103152.06;;;-0.15;96.42
79415;BME280;68864;44.972;19.612;2024-01-30T05:29:38;103160.34;;;-0.03;97.47
79415;BME280;68864;44.972;19.612;2024-01-30T05:32:07;103152.66;;;0.06;95.59
79415;BME280;68864;44.972;19.612;2024-01-30T05:34:35;103156.78;;;-0.04;93.32
79415;BME280;68864;44.972;19.612;2024-01-30T05:37:02;103160.34;;;-0.03;92.50
79415;BME280;68864;44.972;19.612;2024-01-30T05:39:29;103166.53;;;-0.08;91.94
79415;BME280;68864;44.972;19.612;2024-01-30T05:41:58;103159.81;;;-0.12;92.16
79415;BME280;68864;44.972;19.612;2024-01-30T05:44:25;103158.75;;;-0.11;91.47
79415;BME280;68864;44.972;19.612;2024-01-30T05:46:52;103162.41;;;-0.17;91.15
79415;BME280;68864;44.972;19.612;2024-01-30T05:49:20;103167.97;;;-0.23;91.73
79415;BME280;68864;44.972;19.612;2024-01-30T05:51:47;103174.50;;;-0.24;91.52
79415;BME280;68864;44.972;19.612;2024-01-30T05:54:14;103168.66;;;-0.28;91.68
79415;BME280;68864;44.972;19.612;2024-01-30T05:56:41;103176.25;;;-0.30;92.52
79415;BME280;68864;44.972;19.612;2024-01-30T05:59:07;103172.59;;;-0.42;93.09
79415;BME280;68864;44.972;19.612;2024-01-30T06:01:34;103179.00;;;-0.48;93.64
79415;BME280;68864;44.972;19.612;2024-01-30T06:04:01;103168.59;;;-0.64;94.14
79415;BME280;68864;44.972;19.612;2024-01-30T06:06:29;103176.84;;;-0.46;92.86
79415;BME280;68864;44.972;19.612;2024-01-30T06:08:56;103175.84;;;-0.52;93.33
79415;BME280;68864;44.972;19.612;2024-01-30T06:11:23;103189.59;;;-0.58;93.27
79415;BME280;68864;44.972;19.612;2024-01-30T06:13:50;103183.66;;;-0.73;94.57
79415;BME280;68864;44.972;19.612;2024-01-30T06:16:17;103181.50;;;-0.71;94.11
79415;BME280;68864;44.972;19.612;2024-01-30T06:18:46;103196.09;;;-0.77;94.97
79415;BME280;68864;44.972;19.612;2024-01-30T06:21:13;103188.09;;;-0.79;94.53
79415;BME280;68864;44.972;19.612;2024-01-30T06:23:41;103191.31;;;-0.82;95.09
79415;BME280;68864;44.972;19.612;2024-01-30T06:26:08;103203.91;;;-1.06;96.31
79415;BME280;68864;44.972;19.612;2024-01-30T06:28:35;103208.00;;;-0.90;95.75
79415;BME280;68864;44.972;19.612;2024-01-30T06:31:03;103206.25;;;-0.85;95.56
79415;BME280;68864;44.972;19.612;2024-01-30T06:33:29;103206.72;;;-0.88;95.77
79415;BME280;68864;44.972;19.612;2024-01-30T06:35:56;103213.22;;;-0.82;95.37
79415;BME280;68864;44.972;19.612;2024-01-30T06:38:23;103212.41;;;-0.89;95.80
79415;BME280;68864;44.972;19.612;2024-01-30T06:40:51;103212.25;;;-0.94;96.28
79415;BME280;68864;44.972;19.612;2024-01-30T06:43:18;103212.69;;;-0.97;96.51
79415;BME280;68864;44.972;19.612;2024-01-30T06:45:45;103212.38;;;-0.83;95.41
79415;BME280;68864;44.972;19.612;2024-01-30T06:48:12;103218.69;;;-0.82;95.20
79415;BME280;68864;44.972;19.612;2024-01-30T06:50:39;103219.56;;;-0.88;95.44
79415;BME280;68864;44.972;19.612;2024-01-30T06:53:06;103219.16;;;-0.92;95.47
79415;BME280;68864;44.972;19.612;2024-01-30T06:55:33;103221.63;;;-0.84;94.96
79415;BME280;68864;44.972;19.612;2024-01-30T06:58:01;103216.16;;;-0.84;95.44
79415;BME280;68864;44.972;19.612;2024-01-30T07:00:28;103211.91;;;-0.80;94.97
79415;BME280;68864;44.972;19.612;2024-01-30T07:02:55;103199.06;;;-0.79;94.66
79415;BME280;68864;44.972;19.612;2024-01-30T07:05:22;103206.69;;;-0.81;95.24
79415;BME280;68864;44.972;19.612;2024-01-30T07:07:49;103213.53;;;-0.72;94.72
79415;BME280;68864;44.972;19.612;2024-01-30T07:10:16;103215.00;;;-0.69;95.56
79415;BME280;68864;44.972;19.612;2024-01-30T07:12:43;103221.47;;;-0.64;96.04
79415;BME280;68864;44.972;19.612;2024-01-30T07:15:11;103222.69;;;-0.60;95.84
79415;BME280;68864;44.972;19.612;2024-01-30T07:17:41;103207.03;;;-0.53;94.42
79415;BME280;68864;44.972;19.612;2024-01-30T07:20:09;103223.53;;;-0.34;94.84
79415;BME280;68864;44.972;19.612;2024-01-30T07:22:36;103222.28;;;-0.38;94.71
79415;BME280;68864;44.972;19.612;2024-01-30T07:25:04;103220.53;;;-0.33;94.56
79415;BME280;68864;44.972;19.612;2024-01-30T07:27:31;103213.84;;;-0.37;95.70
79415;BME280;68864;44.972;19.612;2024-01-30T07:29:58;103226.44;;;-0.11;95.49
79415;BME280;68864;44.972;19.612;2024-01-30T07:32:26;103221.59;;;-0.09;94.84
79415;BME280;68864;44.972;19.612;2024-01-30T07:34:53;103209.38;;;-0.13;95.31
79415;BME280;68864;44.972;19.612;2024-01-30T07:37:20;103212.16;;;0.05;94.81
79415;BME280;68864;44.972;19.612;2024-01-30T07:39:47;103222.88;;;0.25;93.69
79415;BME280;68864;44.972;19.612;2024-01-30T07:42:13;103218.06;;;0.20;94.90
79415;BME280;68864;44.972;19.612;2024-01-30T07:44:40;103222.66;;;0.26;94.59
79415;BME280;68864;44.972;19.612;2024-01-30T07:47:07;103217.00;;;0.39;93.84
79415;BME280;68864;44.972;19.612;2024-01-30T07:49:35;103207.28;;;0.55;92.74
79415;BME280;68864;44.972;19.612;2024-01-30T07:52:03;103213.28;;;0.64;92.27
79415;BME280;68864;44.972;19.612;2024-01-30T07:54:32;103225.28;;;0.81;91.13
79415;BME280;68864;44.972;19.612;2024-01-30T07:57:00;103219.47;;;0.89;91.29
79415;BME280;68864;44.972;19.612;2024-01-30T07:59:27;103208.88;;;0.93;90.64
79415;BME280;68864;44.972;19.612;2024-01-30T08:01:54;103215.56;;;1.08;89.85
79415;BME280;68864;44.972;19.612;2024-01-30T08:04:21;103223.25;;;1.18;89.67
79415;BME280;68864;44.972;19.612;2024-01-30T08:06:49;103218.91;;;0.99;89.07
79415;BME280;68864;44.972;19.612;2024-01-30T08:09:16;103208.91;;;1.16;89.27
79415;BME280;68864;44.972;19.612;2024-01-30T08:11:43;103210.38;;;1.53;87.50
79415;BME280;68864;44.972;19.612;2024-01-30T08:14:10;103199.84;;;1.74;86.57
79415;BME280;68864;44.972;19.612;2024-01-30T08:16:39;103220.28;;;2.01;85.85
79415;BME280;68864;44.972;19.612;2024-01-30T08:19:06;103208.63;;;2.22;84.74
79415;BME280;68864;44.972;19.612;2024-01-30T08:21:32;103205.84;;;2.34;83.04
79415;BME280;68864;44.972;19.612;2024-01-30T08:24:04;103214.56;;;2.43;83.91
79415;BME280;68864;44.972;19.612;2024-01-30T08:26:31;103215.28;;;2.78;82.39
79415;BME280;68864;44.972;19.612;2024-01-30T08:28:58;103207.00;;;2.78;82.22
79415;BME280;68864;44.972;19.612;2024-01-30T08:31:25;103211.63;;;2.89;81.78
79415;BME280;68864;44.972;19.612;2024-01-30T08:33:51;103228.75;;;3.08;80.85
79415;BME280;68864;44.972;19.612;2024-01-30T08:36:19;103222.75;;;3.11;80.84
79415;BME280;68864;44.972;19.612;2024-01-30T08:38:46;103216.25;;;3.17;80.02
79415;BME280;68864;44.972;19.612;2024-01-30T08:41:15;103225.28;;;3.46;78.95
79415;BME280;68864;44.972;19.612;2024-01-30T08:43:41;103230.63;;;3.69;77.97
79415;BME280;68864;44.972;19.612;2024-01-30T08:46:10;103232.88;;;3.22;78.35
79415;BME280;68864;44.972;19.612;2024-01-30T08:48:37;103223.13;;;3.31;79.50
79415;BME280;68864;44.972;19.612;2024-01-30T08:51:04;103227.38;;;3.39;78.62
79415;BME280;68864;44.972;19.612;2024-01-30T08:53:34;103237.88;;;3.75;77.11
79415;BME280;68864;44.972;19.612;2024-01-30T08:56:01;103236.72;;;3.54;77.36
79415;BME280;68864;44.972;19.612;2024-01-30T08:58:29;103233.66;;;4.28;75.22
79415;BME280;68864;44.972;19.612;2024-01-30T09:00:56;103215.63;;;5.17;72.08
79415;BME280;68864;44.972;19.612;2024-01-30T09:03:22;103235.25;;;5.53;71.53
79415;BME280;68864;44.972;19.612;2024-01-30T09:05:49;103222.22;;;6.32;68.06
79415;BME280;68864;44.972;19.612;2024-01-30T09:08:16;103217.47;;;7.05;64.98
79415;BME280;68864;44.972;19.612;2024-01-30T09:10:43;103224.16;;;7.35;64.90
79415;BME280;68864;44.972;19.612;2024-01-30T09:13:11;103236.06;;;9.53;58.52
79415;BME280;68864;44.972;19.612;2024-01-30T09:15:40;103232.91;;;9.31;56.83
79415;BME280;68864;44.972;19.612;2024-01-30T09:18:07;103214.75;;;10.49;54.41
79415;BME280;68864;44.972;19.612;2024-01-30T09:20:34;103215.59;;;11.43;52.37
79415;BME280;68864;44.972;19.612;2024-01-30T09:23:01;103254.88;;;12.25;50.51
79415;BME280;68864;44.972;19.612;2024-01-30T09:25:28;103269.66;;;13.66;46.20
79415;BME280;68864;44.972;19.612;2024-01-30T09:27:54;103320.72;;;15.18;40.82
79415;BME280;68864;44.972;19.612;2024-01-30T09:30:21;103336.19;;;16.36;39.21
79415;BME280;68864;44.972;19.612;2024-01-30T09:32:50;103331.16;;;18.66;35.39
79415;BME280;68864;44.972;19.612;2024-01-30T09:35:16;103280.34;;;20.14;33.97
79415;BME280;68864;44.972;19.612;2024-01-30T09:37:43;103239.38;;;21.09;32.87
79415;BME280;68864;44.972;19.612;2024-01-30T09:40:11;103205.69;;;22.07;30.77
79415;BME280;68864;44.972;19.612;2024-01-30T09:42:37;103205.16;;;20.83;28.86
79415;BME280;68864;44.972;19.612;2024-01-30T09:45:05;103185.97;;;22.41;28.38
79415;BME280;68864;44.972;19.612;2024-01-30T09:47:34;103191.97;;;21.67;29.17
79415;BME280;68864;44.972;19.612;2024-01-30T09:50:04;103190.50;;;21.35;27.62
79415;BME280;68864;44.972;19.612;2024-01-30T09:52:31;103182.47;;;20.16;30.09
79415;BME280;68864;44.972;19.612;2024-01-30T09:54:59;103177.88;;;21.52;28.23
79415;BME280;68864;44.972;19.612;2024-01-30T09:57:26;103175.72;;;22.33;26.29
79415;BME280;68864;44.972;19.612;2024-01-30T09:59:53;103172.91;;;22.63;26.38
79415;BME280;68864;44.972;19.612;2024-01-30T10:02:20;103169.28;;;21.10;29.07
79415;BME280;68864;44.972;19.612;2024-01-30T10:04:48;103170.16;;;20.40;28.22
79415;BME280;68864;44.972;19.612;2024-01-30T10:07:16;103164.03;;;21.69;27.04
79415;BME280;68864;44.972;19.612;2024-01-30T10:09:43;103159.06;;;19.57;29.29
79415;BME280;68864;44.972;19.612;2024-01-30T10:12:10;103156.44;;;19.36;29.96
79415;BME280;68864;44.972;19.612;2024-01-30T10:14:37;103153.06;;;18.14;31.65
79415;BME280;68864;44.972;19.612;2024-01-30T10:17:04;103149.88;;;17.13;34.45
79415;BME280;68864;44.972;19.612;2024-01-30T10:19:31;103162.75;;;15.84;36.21
79415;BME280;68864;44.972;19.612;2024-01-30T10:22:00;103148.56;;;14.26;39.72
79415;BME280;68864;44.972;19.612;2024-01-30T10:24:28;103160.19;;;13.63;41.90
79415;BME280;68864;44.972;19.612;2024-01-30T10:26:56;103153.22;;;13.82;40.56
79415;BME280;68864;44.972;19.612;2024-01-30T10:29:23;103155.06;;;13.34;42.15
79415;BME280;68864;44.972;19.612;2024-01-30T10:31:58;103150.09;;;12.72;43.21
79415;BME280;68864;44.972;19.612;2024-01-30T10:34:25;103145.53;;;12.13;44.54
79415;BME280;68864;44.972;19.612;2024-01-30T10:36:59;103145.13;;;11.92;45.95
79415;BME280;68864;44.972;19.612;2024-01-30T10:39:29;103144.59;;;12.04;46.29
79415;BME280;68864;44.972;19.612;2024-01-30T10:42:00;103145.03;;;11.51;47.16
79415;BME280;68864;44.972;19.612;2024-01-30T10:44:36;103147.81;;;10.68;48.84
79415;BME280;68864;44.972;19.612;2024-01-30T10:47:06;103132.25;;;10.99;47.59
79415;BME280;68864;44.972;19.612;2024-01-30T10:49:39;103143.53;;;11.27;47.79
79415;BME280;68864;44.972;19.612;2024-01-30T10:52:09;103138.53;;;11.56;47.55
79415;BME280;68864;44.972;19.612;2024-01-30T10:54:40;103146.56;;;11.11;48.28
79415;BME280;68864;44.972;19.612;2024-01-30T10:57:12;103123.75;;;10.72;48.59
79415;BME280;68864;44.972;19.612;2024-01-30T10:59:40;103134.13;;;10.05;50.02
79415;BME280;68864;44.972;19.612;2024-01-30T11:02:09;103122.41;;;10.08;50.72
79415;BME280;68864;44.972;19.612;2024-01-30T11:04:36;103112.81;;;10.19;50.80
79415;BME280;68864;44.972;19.612;2024-01-30T11:07:14;103130.31;;;10.01;50.47
79415;BME280;68864;44.972;19.612;2024-01-30T11:09:48;103108.16;;;10.33;49.77
79415;BME280;68864;44.972;19.612;2024-01-30T11:12:15;103119.03;;;9.87;50.77
79415;BME280;68864;44.972;19.612;2024-01-30T11:14:42;103128.09;;;9.50;52.29
79415;BME280;68864;44.972;19.612;2024-01-30T11:17:09;103116.00;;;9.60;51.81
79415;BME280;68864;44.972;19.612;2024-01-30T11:19:37;103114.00;;;9.89;51.07
79415;BME280;68864;44.972;19.612;2024-01-30T11:22:06;103116.25;;;9.87;50.87
79415;BME280;68864;44.972;19.612;2024-01-30T11:24:39;103102.28;;;9.69;51.19
79415;BME280;68864;44.972;19.612;2024-01-30T11:27:09;103089.06;;;9.55;50.81
79415;BME280;68864;44.972;19.612;2024-01-30T11:29:36;103086.75;;;9.10;52.42
79415;BME280;68864;44.972;19.612;2024-01-30T11:32:04;103098.09;;;9.42;51.67
79415;BME280;68864;44.972;19.612;2024-01-30T11:34:32;103094.09;;;9.53;51.70
79415;BME280;68864;44.972;19.612;2024-01-30T11:37:03;103102.50;;;8.91;52.93
79415;BME280;68864;44.972;19.612;2024-01-30T11:39:35;103088.75;;;8.70;53.67
79415;BME280;68864;44.972;19.612;2024-01-30T11:42:03;103087.53;;;8.82;53.85
79415;BME280;68864;44.972;19.612;2024-01-30T11:44:32;103079.75;;;8.84;53.05
79415;BME280;68864;44.972;19.612;2024-01-30T11:46:59;103078.03;;;8.88;51.99
79415;BME280;68864;44.972;19.612;2024-01-30T11:49:28;103065.78;;;8.89;52.47
79415;BME280;68864;44.972;19.612;2024-01-30T11:51:56;103072.06;;;8.65;52.88
79415;BME280;68864;44.972;19.612;2024-01-30T11:54:23;103066.16;;;8.77;53.10
79415;BME280;68864;44.972;19.612;2024-01-30T11:56:49;103066.22;;;8.67;52.46
79415;BME280;68864;44.972;19.612;2024-01-30T11:59:16;103062.94;;;8.94;51.30
79415;BME280;68864;44.972;19.612;2024-01-30T12:01:45;103052.28;;;8.33;50.69
79415;BME280;68864;44.972;19.612;2024-01-30T12:04:12;103055.19;;;8.57;50.91
79415;BME280;68864;44.972;19.612;2024-01-30T12:06:39;103050.22;;;7.99;49.22
79415;BME280;68864;44.972;19.612;2024-01-30T12:09:06;103049.09;;;8.06;50.46
79415;BME280;68864;44.972;19.612;2024-01-30T12:11:43;103047.38;;;8.15;45.48
79415;BME280;68864;44.972;19.612;2024-01-30T12:14:11;103055.22;;;8.03;45.09
79415;BME280;68864;44.972;19.612;2024-01-30T12:16:38;103053.84;;;8.00;45.93
79415;BME280;68864;44.972;19.612;2024-01-30T12:19:06;103056.38;;;7.91;44.35
79415;BME280;68864;44.972;19.612;2024-01-30T12:21:34;103033.66;;;7.79;44.77
79415;BME280;68864;44.972;19.612;2024-01-30T12:24:01;103036.81;;;7.63;46.27
79415;BME280;68864;44.972;19.612;2024-01-30T12:26:28;103045.63;;;7.75;46.22
79415;BME280;68864;44.972;19.612;2024-01-30T12:28:55;103048.22;;;7.51;46.16
79415;BME280;68864;44.972;19.612;2024-01-30T12:31:26;103028.28;;;7.34;45.99
79415;BME280;68864;44.972;19.612;2024-01-30T12:33:53;103031.06;;;7.44;46.12
79415;BME280;68864;44.972;19.612;2024-01-30T12:36:22;103027.16;;;7.40;46.17
79415;BME280;68864;44.972;19.612;2024-01-30T12:38:49;103023.31;;;7.36;46.45
79415;BME280;68864;44.972;19.612;2024-01-30T12:41:17;103017.19;;;7.34;45.29
79415;BME280;68864;44.972;19.612;2024-01-30T12:43:44;103020.00;;;7.29;45.69
79415;BME280;68864;44.972;19.612;2024-01-30T12:46:13;103022.50;;;7.30;46.90